Overview Statistics Trail Chart Weather Telemetry Raw packets
 

This is the latest recevied weather packets stored in our database for station/object KH6DH-13. If no packets are shown the sender has not sent any weather packets the latest 10 day(s).

<< 34 35 36 37 38 39 40 >>
Time Temp. Humidity Pressure Rain* Wind** Luminosity Snow
1788155631 26.11° C - - 0 mm 1.34 m/s, 94° - -
1788155030 26.67° C - - 0 mm 1.34 m/s, 68° - -
1788154429 26.67° C - - 0 mm 0.45 m/s, 287° - -
1788153828 26.67° C - - 0 mm 1.79 m/s, 73° - -
1788153227 26.67° C - - 0 mm 1.34 m/s, 27° - -
1788152626 26.67° C - - 0 mm 0.45 m/s, 318° - -
1788152025 27.22° C - - 0 mm 2.68 m/s, 17° - -
1788151424 27.22° C - - 0 mm 2.24 m/s, 97° - -
1788150823 27.78° C - - 0 mm 1.34 m/s, 79° - -
1788150222 27.78° C - - 0 mm 3.58 m/s, 110° - -
1788149621 27.78° C - - 0 mm 0.89 m/s, 314° - -
1788149020 28.33° C - - 0 mm 3.13 m/s, 30° - -
1788148419 28.33° C - - 0 mm 1.34 m/s, 79° - -
1788147818 28.89° C - - 0 mm 1.79 m/s, 23° - -
1788147217 29.44° C - - 0 mm 1.34 m/s, 63° - -
1788146616 28.89° C - - 0 mm 0.89 m/s, 98° - -
1788146015 28.89° C - - 0 mm 1.79 m/s, 28° - -
1788145414 28.89° C - - 0 mm 1.79 m/s, 58° - -
1788144813 29.44° C - - 0 mm 3.13 m/s, 75° - -
1788144212 30° C - - 0 mm 1.34 m/s, 72° - -
1788143624 30° C - - 0 mm 3.13 m/s, 48° - -
1788143007 30° C - - 0 mm 2.24 m/s, 97° - -
1788142406 30° C - - 0 mm 2.24 m/s, 98° - -
1788141805 30° C - - 0 mm 3.13 m/s, 96° - -
1788141204 30° C - - 0 mm 1.79 m/s, 98° - -

* Rain latest hour (hover to see other rain measurements)
** Current wind speed in m/s (hover to see current wind gust speed)